»·PEaware :: XACAM KPSP-KTOA

XACAM :: KPSP-KTOA

FLIGHT INFORMATION

Flight Status: Arrived
Operator: Unknown
More flights by this operator :: More flights under this callsign
Pilot: Rafael C. (24230)
Aircraft: BEECH AIRCRAFT DEBONAIR BONANZA
(BE33)
More flights by this aircraft type
Origin: KPSP Palm Springs Intl
United States
Destination: KTOA Zamperini
United States
More flights between these airports :: More routes between these airports
Route: +CATH1 PSP V388 PDZ PDZ270/016 V394 SLI
File this flight plan on PilotEdge
Remarks: TEC Route PSPP8A
Altitude:
(Current/Filed)
10,000ft
Speed:
(Current/Filed)
150kts
Departed: 24-Nov-19 07:08 PM
Arrived: 24-Nov-19 08:09 PM
Distance/Time
Traveled:
92nm/1:01
Distance/Time
To Go:
Arrived

Flight Plot

Page will automatically refresh every two minutes.

Flight plan parsing failed; only flown route is shown


Map Options




Map Legend


Flown Route
Filed Route
Departure Airport
Arrival Airport
Navaid (VOR, NDB)
Fix

Horizontal Profiles

Position Reports

Time Latitude Longitude Heading Altitude Ground
Speed
24-Nov-19 18:54 33.823373 -116.498350 55 400ft 0kts
24-Nov-19 18:55 33.823373 -116.498350 55 400ft 0kts
24-Nov-19 18:56 33.823373 -116.498350 55 400ft 0kts
24-Nov-19 18:57 33.823373 -116.498350 55 400ft 0kts
24-Nov-19 18:58 33.823373 -116.498350 55 400ft 0kts
24-Nov-19 18:59 33.823373 -116.498350 55 400ft 0kts
24-Nov-19 19:00 33.823373 -116.498350 55 400ft 0kts
24-Nov-19 19:01 33.823373 -116.498350 55 400ft 0kts
24-Nov-19 19:02 33.823373 -116.498350 55 400ft 0kts
24-Nov-19 19:03 33.823408 -116.498291 53 400ft 3kts
24-Nov-19 19:04 33.824616 -116.499085 323 404ft 0kts
24-Nov-19 19:05 33.824574 -116.499705 233 404ft 0kts
24-Nov-19 19:06 33.824545 -116.500221 321 405ft 0kts
24-Nov-19 19:07 33.837349 -116.512005 321 904ft 99kts
24-Nov-19 19:08 33.860355 -116.531271 325 2259ft 101kts
24-Nov-19 19:09 33.883111 -116.551640 322 3352ft 102kts
24-Nov-19 19:10 33.903669 -116.548409 98 4134ft 116kts
24-Nov-19 19:11 33.893365 -116.511818 108 4971ft 116kts
24-Nov-19 19:12 33.882755 -116.474619 108 5748ft 118kts
24-Nov-19 19:13 33.871843 -116.436897 109 6470ft 119kts
24-Nov-19 19:14 33.857625 -116.400461 113 7215ft 122kts
24-Nov-19 19:15 33.841842 -116.363891 116 8009ft 123kts
24-Nov-19 19:16 33.826241 -116.326692 115 8766ft 126kts
24-Nov-19 19:17 33.817728 -116.288644 44 9547ft 114kts
24-Nov-19 19:18 33.835427 -116.308017 288 10012ft 128kts
24-Nov-19 19:19 33.847393 -116.354603 289 10027ft 155kts
24-Nov-19 19:20 33.860719 -116.404966 290 10004ft 158kts
24-Nov-19 19:21 33.875523 -116.455208 292 9967ft 158kts
24-Nov-19 19:22 33.888684 -116.505020 289 10049ft 154kts
24-Nov-19 19:23 33.901915 -116.554916 289 9990ft 158kts
24-Nov-19 19:24 33.913813 -116.605571 286 10055ft 154kts
24-Nov-19 19:25 33.925570 -116.656352 283 10002ft 159kts
24-Nov-19 19:26 33.937861 -116.706776 288 10022ft 158kts
24-Nov-19 19:27 33.948905 -116.757840 267 10033ft 159kts
24-Nov-19 19:28 33.946239 -116.811130 269 10017ft 160kts
24-Nov-19 19:29 33.944820 -116.864909 268 10006ft 160kts
24-Nov-19 19:30 33.942995 -116.918506 268 10006ft 160kts
24-Nov-19 19:31 33.941015 -116.972080 268 10004ft 160kts
24-Nov-19 19:32 33.938953 -117.025875 268 10002ft 160kts
24-Nov-19 19:33 33.936861 -117.079449 268 10001ft 160kts
24-Nov-19 19:34 33.934733 -117.133286 268 9999ft 160kts
24-Nov-19 19:35 33.932603 -117.187828 268 9481ft 164kts
24-Nov-19 19:36 33.930350 -117.242815 268 8778ft 164kts
24-Nov-19 19:37 33.928063 -117.298367 267 8011ft 168kts
24-Nov-19 19:38 33.925825 -117.354014 267 7199ft 160kts
24-Nov-19 19:39 33.923602 -117.406102 267 6452ft 152kts
24-Nov-19 19:40 33.921385 -117.457179 267 5995ft 155kts
24-Nov-19 19:41 33.919384 -117.510692 267 5991ft 162kts
24-Nov-19 19:42 33.926132 -117.563646 287 5987ft 164kts
24-Nov-19 19:43 33.937647 -117.615583 284 5346ft 154kts
24-Nov-19 19:44 33.948439 -117.665226 283 4634ft 151kts
24-Nov-19 19:45 33.958839 -117.713537 284 3999ft 142kts
24-Nov-19 19:46 33.969152 -117.760786 284 3988ft 153kts
24-Nov-19 19:47 33.980190 -117.811463 283 3988ft 156kts
24-Nov-19 19:48 33.971805 -117.858387 207 3983ft 159kts
24-Nov-19 19:49 33.927420 -117.868516 194 3982ft 161kts
24-Nov-19 19:50 33.885158 -117.883856 200 3983ft 161kts
24-Nov-19 19:51 33.843717 -117.902053 201 3984ft 161kts
24-Nov-19 19:52 33.807561 -117.928219 249 3982ft 158kts
24-Nov-19 19:53 33.775401 -117.954366 182 3990ft 162kts
24-Nov-19 19:54 33.729882 -117.954901 181 3989ft 163kts
24-Nov-19 19:55 33.684150 -117.955281 181 3991ft 163kts
24-Nov-19 19:56 33.645875 -117.974415 251 3986ft 158kts
24-Nov-19 19:57 33.645401 -118.027434 271 3990ft 158kts
24-Nov-19 19:58 33.646497 -118.080225 271 3990ft 158kts
24-Nov-19 19:59 33.647575 -118.133061 271 3988ft 158kts
24-Nov-19 20:00 33.648833 -118.185804 276 3982ft 158kts
24-Nov-19 20:01 33.681965 -118.208327 1 3450ft 146kts
24-Nov-19 20:02 33.722217 -118.205376 353 2735ft 141kts
24-Nov-19 20:03 33.738600 -118.240047 298 2115ft 115kts
24-Nov-19 20:04 33.756338 -118.267849 306 1677ft 107kts
24-Nov-19 20:05 33.774947 -118.295702 303 1043ft 92kts
24-Nov-19 20:06 33.789046 -118.316787 302 551ft 78kts
24-Nov-19 20:07 33.801695 -118.336053 302 103ft 59kts
24-Nov-19 20:08 33.805886 -118.343883 289 92ft 14kts
24-Nov-19 20:09 33.805001 -118.346653 216 98ft 0kts
24-Nov-19 20:10 33.805001 -118.346653 216 98ft 0kts

Navigation Log

Ident Type
Flight plan parsing failed, navigation log unavailable